createdAt,value
2023-02-14T00:00:50.213Z,99.90
2023-02-14T00:03:21.018Z,99.90
2023-02-14T00:05:52.100Z,99.90
2023-02-14T00:08:23.176Z,99.90
2023-02-14T00:10:54.118Z,99.90
2023-02-14T00:13:25.001Z,99.90
2023-02-14T00:15:56.818Z,99.90
2023-02-14T00:18:29.772Z,99.90
2023-02-14T00:21:03.937Z,99.90
2023-02-14T00:23:34.862Z,99.90
2023-02-14T00:26:06.202Z,99.90
2023-02-14T00:28:37.152Z,99.90
2023-02-14T00:31:08.725Z,99.90
2023-02-14T00:33:39.955Z,99.90
2023-02-14T00:36:13.281Z,99.90
2023-02-14T00:38:44.335Z,99.90
2023-02-14T00:41:17.439Z,99.90
2023-02-14T00:43:48.920Z,99.90
2023-02-14T00:46:21.753Z,99.90
2023-02-14T00:48:53.057Z,99.90
2023-02-14T00:51:24.723Z,99.90
2023-02-14T00:53:55.995Z,99.90
2023-02-14T00:56:26.999Z,99.90
2023-02-14T00:58:58.123Z,99.90
2023-02-14T01:01:29.602Z,99.90
2023-02-14T01:04:00.478Z,99.90
2023-02-14T01:06:31.469Z,99.90
2023-02-14T01:09:02.486Z,99.90
2023-02-14T01:11:33.637Z,99.90
2023-02-14T01:14:04.935Z,99.90
2023-02-14T01:16:36.866Z,99.90
2023-02-14T01:19:09.421Z,99.90
2023-02-14T01:21:40.506Z,99.90
2023-02-14T01:24:13.358Z,99.90
2023-02-14T01:26:45.578Z,99.90
2023-02-14T01:29:16.575Z,99.90
2023-02-14T01:31:49.251Z,99.90
2023-02-14T01:34:20.225Z,99.90
2023-02-14T01:36:51.372Z,99.90
2023-02-14T01:39:22.295Z,99.90
2023-02-14T01:41:54.134Z,99.90
2023-02-14T01:45:00.013Z,99.90
2023-02-14T01:47:33.602Z,99.90
2023-02-14T01:50:07.186Z,99.90
2023-02-14T01:52:40.851Z,99.90
2023-02-14T01:55:15.509Z,99.90
2023-02-14T01:57:49.589Z,99.90
2023-02-14T02:00:40.235Z,99.90
2023-02-14T02:03:12.450Z,99.90
2023-02-14T02:05:46.417Z,99.90
2023-02-14T02:08:17.805Z,99.90
2023-02-14T02:10:48.753Z,99.90
2023-02-14T02:13:22.447Z,99.90
2023-02-14T02:18:42.497Z,99.90
2023-02-14T02:22:05.456Z,99.90
2023-02-14T02:24:43.202Z,99.90
2023-02-14T02:27:53.515Z,99.90
2023-02-14T02:30:51.964Z,99.90
2023-02-14T02:34:03.387Z,99.90
2023-02-14T02:36:52.042Z,99.90
2023-02-14T02:39:37.784Z,99.90
2023-02-14T02:42:12.609Z,99.90
2023-02-14T02:44:48.411Z,99.90
2023-02-14T02:47:23.958Z,99.90
2023-02-14T02:50:17.012Z,99.90
2023-02-14T02:53:07.723Z,99.90
2023-02-14T02:56:01.594Z,99.90
2023-02-14T02:58:36.777Z,99.90
2023-02-14T03:01:10.876Z,99.90
2023-02-14T03:04:01.857Z,99.90
2023-02-14T03:06:34.120Z,99.90
2023-02-14T03:09:14.190Z,99.90
2023-02-14T03:11:47.981Z,99.90
2023-02-14T03:14:23.277Z,99.90
2023-02-14T03:17:06.422Z,99.90
2023-02-14T03:20:08.616Z,99.90
2023-02-14T03:22:51.711Z,99.90
2023-02-14T03:25:28.654Z,99.90
2023-02-14T03:28:04.484Z,99.90
2023-02-14T03:30:58.558Z,99.90
2023-02-14T03:33:33.085Z,99.90
2023-02-14T03:36:07.605Z,99.90
2023-02-14T03:38:41.663Z,99.90
2023-02-14T03:41:16.234Z,99.90
2023-02-14T03:43:50.452Z,99.90
2023-02-14T03:46:24.322Z,99.90
2023-02-14T03:48:57.877Z,99.90
2023-02-14T03:51:32.262Z,99.90
2023-02-14T03:54:05.990Z,99.90
2023-02-14T03:56:39.898Z,99.90
2023-02-14T03:59:13.970Z,99.90
2023-02-14T04:02:06.096Z,99.90
2023-02-14T04:04:39.853Z,99.90
2023-02-14T04:07:16.725Z,99.90
2023-02-14T04:09:47.954Z,99.90
2023-02-14T04:12:32.359Z,99.90
2023-02-14T04:14:53.446Z,99.90
2023-02-14T04:17:42.086Z,99.90
2023-02-14T04:20:14.003Z,99.90
2023-02-14T04:22:46.327Z,99.90
2023-02-14T04:25:17.698Z,99.90
2023-02-14T04:27:48.962Z,99.90
2023-02-14T04:30:22.959Z,99.90
2023-02-14T04:32:54.074Z,99.90
2023-02-14T04:35:25.041Z,99.90
2023-02-14T04:37:56.013Z,99.90
2023-02-14T04:40:27.152Z,99.90
2023-02-14T04:42:58.634Z,99.90
2023-02-14T04:45:30.923Z,99.90
2023-02-14T04:48:01.875Z,99.90
2023-02-14T04:50:32.984Z,99.90
2023-02-14T04:53:03.897Z,99.90
2023-02-14T04:55:35.883Z,99.90
2023-02-14T04:58:07.098Z,99.90
2023-02-14T05:00:38.051Z,99.90
2023-02-14T05:03:09.261Z,99.90
2023-02-14T05:05:40.566Z,99.90
2023-02-14T05:08:11.631Z,99.90
2023-02-14T05:10:43.022Z,99.90
2023-02-14T05:13:14.531Z,99.90
2023-02-14T05:15:47.341Z,99.90
2023-02-14T05:18:18.245Z,99.90
2023-02-14T05:20:51.623Z,99.90
2023-02-14T05:26:01.898Z,99.90
2023-02-14T05:28:33.005Z,99.90
2023-02-14T05:31:04.379Z,99.90
2023-02-14T05:33:35.616Z,99.90
2023-02-14T05:36:07.746Z,99.90
2023-02-14T05:38:38.845Z,99.90
2023-02-14T05:41:09.887Z,99.90
2023-02-14T05:43:40.965Z,99.90
2023-02-14T05:46:12.006Z,99.90
2023-02-14T05:48:43.215Z,99.90
2023-02-14T05:51:14.560Z,99.90
2023-02-14T05:53:45.499Z,99.90
2023-02-14T05:56:16.426Z,99.90
2023-02-14T05:58:47.241Z,99.90
2023-02-14T06:01:18.218Z,99.90
2023-02-14T06:03:49.132Z,99.90
2023-02-14T06:06:20.288Z,99.90
2023-02-14T06:08:51.121Z,99.90
2023-02-14T06:11:22.385Z,99.90
2023-02-14T06:13:53.425Z,99.90
2023-02-14T06:16:24.523Z,99.90
2023-02-14T06:18:55.366Z,99.90
2023-02-14T06:21:26.922Z,99.90
2023-02-14T06:23:57.867Z,99.90
2023-02-14T06:26:29.282Z,99.90
2023-02-14T06:29:00.796Z,99.90
2023-02-14T06:31:31.800Z,99.90
2023-02-14T06:34:03.124Z,99.90
2023-02-14T06:36:35.126Z,99.90
2023-02-14T06:39:06.549Z,99.90
2023-02-14T06:41:37.509Z,99.90
2023-02-14T06:44:10.670Z,99.90
2023-02-14T06:46:41.682Z,99.90
2023-02-14T06:49:13.149Z,99.90
2023-02-14T06:51:44.195Z,99.90
2023-02-14T06:54:15.135Z,99.90
2023-02-14T06:56:46.071Z,99.90
2023-02-14T06:59:17.024Z,99.90
2023-02-14T07:01:48.139Z,99.90
2023-02-14T07:04:19.385Z,99.90
2023-02-14T07:06:51.325Z,99.90
2023-02-14T07:09:22.369Z,99.90
2023-02-14T07:11:53.308Z,99.90
2023-02-14T07:14:24.348Z,99.90
2023-02-14T07:16:55.473Z,99.90
2023-02-14T07:19:26.402Z,99.90
2023-02-14T07:21:57.511Z,99.90
2023-02-14T07:24:28.818Z,99.90
2023-02-14T07:26:59.917Z,99.90
2023-02-14T07:29:30.869Z,99.90
2023-02-14T07:32:01.911Z,99.90
2023-02-14T07:34:33.124Z,99.90
2023-02-14T07:37:04.685Z,99.90
2023-02-14T07:39:35.737Z,99.90
2023-02-14T07:42:08.468Z,99.90
2023-02-14T07:44:40.136Z,99.90
2023-02-14T07:47:12.782Z,99.90
2023-02-14T07:49:43.829Z,99.90
2023-02-14T07:52:14.774Z,99.90
2023-02-14T07:54:46.043Z,99.90
2023-02-14T07:57:16.946Z,99.90
2023-02-14T07:59:47.904Z,99.90
2023-02-14T08:02:20.520Z,99.90
2023-02-14T08:04:51.572Z,99.90
2023-02-14T08:07:22.535Z,99.90
2023-02-14T08:09:53.606Z,99.90
2023-02-14T08:12:42.211Z,99.90
2023-02-14T08:15:31.212Z,99.90
2023-02-14T08:18:02.091Z,99.90
2023-02-14T08:20:33.009Z,99.90
2023-02-14T08:23:03.888Z,99.90
2023-02-14T08:25:34.901Z,99.90
2023-02-14T08:28:06.415Z,99.90
2023-02-14T08:30:39.332Z,99.90
2023-02-14T08:33:10.420Z,99.90
2023-02-14T08:35:41.719Z,99.90
2023-02-14T08:38:12.756Z,99.90
2023-02-14T08:40:43.782Z,99.90
2023-02-14T08:43:14.907Z,99.90
2023-02-14T08:45:46.184Z,99.90
2023-02-14T08:48:17.304Z,99.90
2023-02-14T08:50:48.460Z,99.90
2023-02-14T08:53:19.736Z,99.90
2023-02-14T08:55:50.813Z,99.90
2023-02-14T08:58:21.730Z,99.90
2023-02-14T09:00:52.943Z,99.90
2023-02-14T09:03:24.821Z,99.90
2023-02-14T09:05:56.418Z,99.90
2023-02-14T09:08:27.935Z,99.90
2023-02-14T09:10:59.995Z,99.90
2023-02-14T09:13:31.530Z,99.90
2023-02-14T09:16:05.956Z,99.90
2023-02-14T09:18:37.353Z,99.90
2023-02-14T09:21:11.701Z,99.90
2023-02-14T09:23:43.236Z,99.90
2023-02-14T09:26:15.800Z,99.90
2023-02-14T09:28:47.690Z,99.90
2023-02-14T09:31:21.711Z,99.90
2023-02-14T09:34:11.515Z,99.90
2023-02-14T09:37:00.562Z,99.90
2023-02-14T09:39:31.989Z,99.90
2023-02-14T09:42:19.940Z,99.90
2023-02-14T09:44:54.174Z,99.90
2023-02-14T09:47:28.705Z,99.90
2023-02-14T09:50:02.008Z,99.90
2023-02-14T09:52:34.517Z,99.90
2023-02-14T09:55:09.702Z,99.90
2023-02-14T09:57:45.396Z,99.90
2023-02-14T10:00:21.487Z,99.90
2023-02-14T10:03:05.645Z,99.90
2023-02-14T10:05:39.544Z,99.90
2023-02-14T10:08:13.857Z,99.90
2023-02-14T10:10:47.867Z,99.90
2023-02-14T10:13:21.858Z,99.90
2023-02-14T10:18:34.960Z,99.90
2023-02-14T10:21:08.802Z,99.90
2023-02-14T10:23:42.246Z,99.90
2023-02-14T10:26:16.296Z,99.90
2023-02-14T10:28:49.296Z,99.90
2023-02-14T10:31:25.970Z,99.90
2023-02-14T10:34:01.080Z,99.90
2023-02-14T10:39:49.907Z,99.90
2023-02-14T10:42:25.971Z,99.90
2023-02-14T10:45:02.735Z,99.90
2023-02-14T10:47:40.607Z,99.90
2023-02-14T10:50:18.297Z,99.90
2023-02-14T10:52:53.427Z,99.90
2023-02-14T10:55:32.236Z,99.90
2023-02-14T10:58:00.662Z,99.90
2023-02-14T11:00:34.915Z,99.90
2023-02-14T11:03:08.886Z,99.90
2023-02-14T11:05:46.176Z,99.90
2023-02-14T11:08:19.648Z,99.90
2023-02-14T11:10:50.482Z,99.90
2023-02-14T11:13:32.801Z,99.90
2023-02-14T11:16:06.174Z,99.90
2023-02-14T11:18:39.686Z,99.90
2023-02-14T11:21:13.223Z,99.90
2023-02-14T11:23:46.044Z,99.90
2023-02-14T11:26:24.407Z,99.90
2023-02-14T11:28:59.240Z,99.90
2023-02-14T11:31:35.287Z,99.90
2023-02-14T11:34:09.655Z,99.90
2023-02-14T11:36:43.867Z,99.90
2023-02-14T11:39:25.489Z,99.90
2023-02-14T11:41:59.114Z,99.90
2023-02-14T11:44:33.440Z,99.90
2023-02-14T11:47:22.692Z,99.90
2023-02-14T11:50:02.210Z,99.90
2023-02-14T11:52:34.233Z,99.90
2023-02-14T11:55:25.649Z,99.90
2023-02-14T11:57:57.986Z,99.90
2023-02-14T12:00:31.662Z,99.90
2023-02-14T12:03:05.847Z,99.90
2023-02-14T12:05:40.180Z,99.90
2023-02-14T12:08:11.483Z,99.90
2023-02-14T12:10:43.124Z,99.90
2023-02-14T12:13:26.849Z,99.90
2023-02-14T12:16:00.717Z,99.90
2023-02-14T12:18:47.126Z,99.90
2023-02-14T12:21:54.298Z,99.90
2023-02-14T12:27:20.436Z,99.90
2023-02-14T12:29:55.134Z,99.90
2023-02-14T12:32:28.696Z,99.90
2023-02-14T12:35:03.294Z,99.90
2023-02-14T12:37:40.681Z,99.90
2023-02-14T12:40:21.266Z,99.90
2023-02-14T12:43:12.460Z,99.90
2023-02-14T12:46:23.487Z,99.90
2023-02-14T12:51:43.652Z,99.90
2023-02-14T12:54:42.289Z,99.90
2023-02-14T12:57:18.572Z,99.90
2023-02-14T12:59:53.246Z,99.90
2023-02-14T13:03:01.212Z,99.90
2023-02-14T13:05:38.613Z,99.90
2023-02-14T13:08:17.803Z,99.90
2023-02-14T13:10:54.397Z,99.90
2023-02-14T13:13:31.995Z,99.90
2023-02-14T13:16:08.044Z,99.90
2023-02-14T13:18:43.542Z,99.90
2023-02-14T13:23:59.429Z,99.90
2023-02-14T13:26:34.987Z,99.50
2023-02-14T13:29:08.572Z,99.80
2023-02-14T13:31:40.198Z,99.90
2023-02-14T13:34:16.478Z,99.60
2023-02-14T13:36:49.206Z,98.20
2023-02-14T13:39:24.556Z,98.40
2023-02-14T13:41:55.706Z,98.30
2023-02-14T13:44:47.839Z,98.90
2023-02-14T13:47:23.741Z,99.90
2023-02-14T13:49:57.330Z,99.10
2023-02-14T13:52:46.427Z,99.40
2023-02-14T13:55:21.634Z,99.10
2023-02-14T13:58:04.524Z,99.90
2023-02-14T14:00:52.370Z,99.70
2023-02-14T14:03:59.008Z,99.90
2023-02-14T14:06:30.297Z,99.00
2023-02-14T14:09:00.932Z,99.40
2023-02-14T14:14:40.023Z,99.40
2023-02-14T14:17:27.974Z,99.90
2023-02-14T14:19:59.311Z,99.80
2023-02-14T14:22:30.766Z,99.80
2023-02-14T14:25:05.835Z,99.90
2023-02-14T14:27:39.557Z,99.90
2023-02-14T14:30:19.651Z,99.90
2023-02-14T14:32:52.090Z,99.90
2023-02-14T14:35:25.567Z,99.90
2023-02-14T14:37:57.879Z,99.90
2023-02-14T14:40:32.502Z,99.90
2023-02-14T14:43:06.299Z,99.90
2023-02-14T14:45:37.626Z,99.90
2023-02-14T14:48:13.915Z,99.90
2023-02-14T14:50:49.188Z,99.90
2023-02-14T14:53:25.217Z,99.90
2023-02-14T14:55:56.353Z,99.90
2023-02-14T14:58:37.218Z,99.90
2023-02-14T15:01:10.504Z,99.90
2023-02-14T15:03:41.769Z,99.90
2023-02-14T15:06:18.481Z,99.90
2023-02-14T15:08:51.616Z,99.90
2023-02-14T15:11:43.084Z,99.90
2023-02-14T15:16:58.033Z,99.90
2023-02-14T15:19:34.085Z,99.90
2023-02-14T15:22:07.721Z,99.90
2023-02-14T15:24:40.453Z,99.90
2023-02-14T15:27:15.556Z,99.90
2023-02-14T15:29:56.155Z,99.90
2023-02-14T15:32:27.933Z,99.90
2023-02-14T15:34:59.216Z,99.90
2023-02-14T15:37:31.036Z,99.90
2023-02-14T15:40:03.731Z,99.90
2023-02-14T15:42:36.123Z,99.90
2023-02-14T15:45:25.217Z,99.90
2023-02-14T15:47:58.315Z,99.90
2023-02-14T15:50:31.843Z,99.90
2023-02-14T15:53:06.192Z,99.90
2023-02-14T15:55:38.286Z,99.90
2023-02-14T15:58:14.437Z,99.90
2023-02-14T16:00:46.940Z,99.90
2023-02-14T16:03:22.137Z,99.90
2023-02-14T16:05:55.177Z,99.90
2023-02-14T16:08:30.451Z,99.90
2023-02-14T16:11:08.457Z,99.90
2023-02-14T16:13:42.284Z,99.90
2023-02-14T16:16:15.597Z,99.90
2023-02-14T16:18:48.758Z,99.90
2023-02-14T16:21:21.758Z,99.90
2023-02-14T16:24:13.836Z,99.90
2023-02-14T16:26:46.898Z,99.90
2023-02-14T16:29:21.136Z,99.90
2023-02-14T16:34:28.634Z,99.90
2023-02-14T16:36:59.899Z,99.90
2023-02-14T16:39:32.308Z,99.90
2023-02-14T16:42:04.384Z,99.90
2023-02-14T16:44:35.812Z,99.90
2023-02-14T16:47:13.774Z,99.90
2023-02-14T16:49:45.222Z,99.90
2023-02-14T16:52:19.073Z,99.90
2023-02-14T16:54:50.096Z,99.90
2023-02-14T16:57:23.620Z,99.90
2023-02-14T16:59:55.416Z,99.90
2023-02-14T17:02:28.486Z,99.90
2023-02-14T17:04:59.883Z,99.90
2023-02-14T17:07:33.247Z,99.90
2023-02-14T17:10:07.611Z,99.90
2023-02-14T17:12:41.535Z,99.90
2023-02-14T17:15:17.594Z,99.90
2023-02-14T17:17:50.198Z,99.90
2023-02-14T17:20:22.057Z,99.90
2023-02-14T17:22:53.414Z,99.90
2023-02-14T17:25:24.742Z,99.90
2023-02-14T17:27:56.512Z,99.90
2023-02-14T17:30:27.973Z,99.90
2023-02-14T17:32:59.355Z,99.90
2023-02-14T17:35:30.561Z,99.90
2023-02-14T17:38:01.646Z,99.90
2023-02-14T17:40:33.301Z,99.90
2023-02-14T17:43:04.375Z,99.90
2023-02-14T17:45:36.487Z,99.90
2023-02-14T17:48:10.252Z,99.90
2023-02-14T17:50:40.855Z,99.90
2023-02-14T17:53:12.631Z,99.90
2023-02-14T17:55:43.532Z,99.90
2023-02-14T17:58:14.520Z,99.90
2023-02-14T18:00:47.005Z,99.90
2023-02-14T18:03:18.245Z,99.90
2023-02-14T18:05:49.274Z,99.90
2023-02-14T18:08:20.994Z,99.90
2023-02-14T18:10:52.334Z,99.90
2023-02-14T18:13:23.831Z,99.90
2023-02-14T18:15:55.208Z,99.90
2023-02-14T18:18:27.839Z,99.90
2023-02-14T18:21:01.093Z,99.90
2023-02-14T18:23:32.865Z,99.90
2023-02-14T18:26:05.805Z,99.90
2023-02-14T18:28:37.551Z,99.90
2023-02-14T18:31:10.198Z,99.90
2023-02-14T18:33:42.206Z,99.90
2023-02-14T18:36:15.574Z,99.90
2023-02-14T18:38:48.584Z,99.90
2023-02-14T18:41:21.249Z,99.90
2023-02-14T18:43:52.974Z,99.90
2023-02-14T18:46:26.263Z,99.90
2023-02-14T18:48:58.992Z,99.90
2023-02-14T18:51:32.051Z,99.90
2023-02-14T18:54:04.771Z,99.90
2023-02-14T18:56:38.673Z,99.90
2023-02-14T18:59:13.451Z,99.90
2023-02-14T19:01:46.321Z,99.90
2023-02-14T19:04:18.099Z,99.90
2023-02-14T19:06:49.464Z,99.90
2023-02-14T19:09:20.774Z,99.90
2023-02-14T19:11:52.002Z,99.90
2023-02-14T19:14:23.344Z,99.90
2023-02-14T19:16:55.534Z,99.90
2023-02-14T19:19:26.855Z,99.90
2023-02-14T19:22:00.448Z,99.90
2023-02-14T19:24:31.741Z,99.90
2023-02-14T19:27:06.594Z,99.90
2023-02-14T19:29:39.765Z,99.90
2023-02-14T19:32:11.805Z,99.90
2023-02-14T19:34:43.290Z,99.90
2023-02-14T19:37:14.715Z,99.90
2023-02-14T19:39:46.029Z,99.90
2023-02-14T19:42:17.644Z,99.90
2023-02-14T19:44:48.888Z,99.90
2023-02-14T19:47:33.627Z,99.90
2023-02-14T19:49:54.043Z,99.90
2023-02-14T19:52:26.590Z,99.90
2023-02-14T19:54:58.522Z,99.90
2023-02-14T19:57:30.058Z,99.90
2023-02-14T20:00:02.239Z,99.90
2023-02-14T20:02:33.832Z,99.90
2023-02-14T20:05:06.509Z,99.90
2023-02-14T20:07:37.560Z,99.90
2023-02-14T20:10:10.509Z,99.90
2023-02-14T20:12:41.748Z,99.90
2023-02-14T20:15:12.718Z,99.90
2023-02-14T20:17:43.813Z,99.90
2023-02-14T20:20:16.800Z,99.90
2023-02-14T20:22:47.669Z,99.90
2023-02-14T20:25:19.053Z,99.90
2023-02-14T20:27:50.087Z,99.90
2023-02-14T20:30:22.504Z,99.90
2023-02-14T20:32:54.574Z,99.90
2023-02-14T20:35:25.782Z,99.90
2023-02-14T20:37:56.764Z,99.90
2023-02-14T20:40:28.432Z,99.90
2023-02-14T20:42:59.353Z,99.90
2023-02-14T20:45:31.111Z,99.90
2023-02-14T20:48:03.868Z,99.90
2023-02-14T20:50:34.818Z,99.90
2023-02-14T20:53:05.805Z,99.90
2023-02-14T20:55:38.021Z,99.90
2023-02-14T20:58:08.868Z,99.90
2023-02-14T21:00:39.918Z,99.90
2023-02-14T21:03:11.118Z,99.90
2023-02-14T21:05:42.395Z,99.90
2023-02-14T21:08:13.309Z,99.90
2023-02-14T21:10:44.352Z,99.90
2023-02-14T21:13:15.243Z,99.90
2023-02-14T21:15:46.663Z,99.90
2023-02-14T21:18:17.927Z,99.90
2023-02-14T21:20:49.034Z,99.90
2023-02-14T21:23:19.990Z,99.90
2023-02-14T21:25:51.048Z,99.90
2023-02-14T21:28:22.145Z,99.90
2023-02-14T21:30:53.210Z,99.90
2023-02-14T21:33:25.504Z,99.90
2023-02-14T21:35:56.561Z,99.90
2023-02-14T21:38:29.133Z,99.90
2023-02-14T21:41:05.202Z,99.90
2023-02-14T21:43:38.633Z,99.90
2023-02-14T21:46:12.294Z,99.90
2023-02-14T21:49:01.552Z,99.90
2023-02-14T21:51:33.469Z,99.90
2023-02-14T21:54:04.296Z,99.90
2023-02-14T21:56:36.923Z,99.90
2023-02-14T21:59:09.157Z,99.90
2023-02-14T22:01:42.250Z,99.90
2023-02-14T22:04:14.304Z,99.90
2023-02-14T22:06:45.616Z,99.90
2023-02-14T22:09:18.908Z,99.90
2023-02-14T22:11:49.805Z,99.90
2023-02-14T22:14:21.175Z,99.90
2023-02-14T22:16:52.189Z,99.90
2023-02-14T22:19:23.135Z,99.90
2023-02-14T22:21:54.320Z,99.90
2023-02-14T22:24:25.654Z,99.90
2023-02-14T22:26:56.549Z,99.90
2023-02-14T22:29:29.202Z,99.90
2023-02-14T22:32:00.010Z,99.90
2023-02-14T22:34:31.421Z,99.90
2023-02-14T22:37:02.476Z,99.90
2023-02-14T22:39:33.538Z,99.90
2023-02-14T22:42:06.274Z,99.90
2023-02-14T22:44:37.199Z,99.90
2023-02-14T22:47:08.356Z,99.90
2023-02-14T22:49:39.436Z,99.90
2023-02-14T22:52:10.348Z,99.90
2023-02-14T22:54:41.411Z,99.90
2023-02-14T22:57:12.522Z,99.90
2023-02-14T22:59:43.810Z,99.90
2023-02-14T23:02:14.834Z,99.90
2023-02-14T23:04:45.761Z,99.90
2023-02-14T23:07:16.732Z,99.90
2023-02-14T23:09:47.726Z,99.90
2023-02-14T23:12:36.415Z,99.90
2023-02-14T23:15:27.526Z,99.90
2023-02-14T23:18:16.387Z,99.90
2023-02-14T23:21:05.149Z,99.90
2023-02-14T23:23:36.617Z,99.90
2023-02-14T23:26:07.613Z,99.90
2023-02-14T23:28:38.738Z,99.90
2023-02-14T23:31:09.835Z,99.90
2023-02-14T23:33:40.909Z,99.90
2023-02-14T23:36:12.355Z,99.90
2023-02-14T23:38:43.168Z,99.90
2023-02-14T23:41:45.832Z,99.90
2023-02-14T23:44:17.435Z,99.90
2023-02-14T23:46:49.207Z,99.90
2023-02-14T23:49:20.910Z,99.90
2023-02-14T23:51:52.617Z,99.90
2023-02-14T23:54:24.672Z,99.90
2023-02-14T23:56:57.665Z,99.90
2023-02-14T23:59:28.976Z,99.90
